EVRA/RIX METAR and TAF weather

Enter ICAO airport designator
Station Type Date Time Source
EVRA METAR 2022/05/23 13:20 UTC NOAA

EVRA 231320Z 36009KT 320V030 CAVOK 18/01 Q1013 NOSIG


Station Type Date Time Source
EVRA Decoded METAR 2022/05/23 13:20 UTC NOAA

Riga International Airport, Latvia (EVRA) 56-55N 023-58E
May 23, 2022 - 09:20 AM EDT / 2022.05.23 1320 UTC
Wind: from the N (360 degrees) at 10 MPH (9 KT) (direction variable):0
Visibility: greater than 7 mile(s):0
Temperature: 64 F (18 C)
Dew Point: 33 F (1 C)
Relative Humidity: 31%
Pressure (altimeter): 29.91 in. Hg (1013 hPa)
ob: EVRA 231320Z 36009KT 320V030 CAVOK 18/01 Q1013 NOSIG
cycle: 13

Station Type Date Time Source
EVRA TAF 2022/05/23 12:03 UTC NOAA

TAF TAF EVRA 231100Z 2312/2412 07005KT CAVOK
TEMPO 2400/2404 0600 FG BKN001

Example: see airport list